Time;durP1;ratioP1;P1;durP2;ratioP2;P2;SDS_P1;SDS_P2;PMS_P1;PMS_P2;Temp;Humidity;BMP_temperature;BMP_pressure;BME280_temperature;BME280_humidity;BME280_pressure;Samples;Min_cycle;Max_cycle;Signal;HPM_P1;HPM_P2
2022/07/29 05:00:43;;;;;;;4.10;3.80;;;21.20;97.20;;;;;;1708070;29;20620;-76
2022/07/29 05:01:34;;;;;;;3.90;3.60;;;21.20;97.20;;;;;;1708058;29;20636;-75
2022/07/29 05:02:26;;;;;;;3.83;3.53;;;21.20;97.20;;;;;;1707877;28;20657;-76
2022/07/29 05:03:17;;;;;;;4.07;3.80;;;21.30;97.20;;;;;;1707952;29;20210;-76
2022/07/29 05:04:08;;;;;;;3.93;3.73;;;21.30;97.20;;;;;;1708021;29;20278;-75
2022/07/29 05:04:59;;;;;;;4.30;4.00;;;21.30;97.20;;;;;;1707918;29;20214;-75
2022/07/29 05:05:51;;;;;;;4.63;4.30;;;21.30;97.20;;;;;;1707947;29;20255;-76
2022/07/29 05:06:42;;;;;;;4.30;4.00;;;21.30;97.20;;;;;;1707667;29;20207;-75
2022/07/29 05:07:33;;;;;;;4.30;4.00;;;21.30;97.20;;;;;;1707958;29;20206;-76
2022/07/29 05:08:24;;;;;;;4.32;4.03;;;21.30;97.20;;;;;;1707831;29;20314;-75
2022/07/29 05:09:16;;;;;;;4.60;4.20;;;21.30;97.20;;;;;;1707891;29;20305;-76
2022/07/29 05:10:08;;;;;;;4.55;4.15;;;21.30;97.20;;;;;;1708005;29;20217;-75
2022/07/29 05:10:59;;;;;;;5.28;4.78;;;21.30;97.20;;;;;;1707896;29;20210;-75
2022/07/29 05:11:50;;;;;;;4.20;4.00;;;21.30;97.20;;;;;;1706233;28;20214;-75
2022/07/29 05:12:42;;;;;;;5.20;4.43;;;21.30;97.20;;;;;;1707614;29;20210;-76
2022/07/29 05:13:33;;;;;;;4.80;4.45;;;21.30;97.20;;;;;;1707912;29;20210;-76
2022/07/29 05:14:25;;;;;;;4.17;3.87;;;21.30;97.20;;;;;;1707834;28;20237;-76
2022/07/29 05:15:17;;;;;;;5.10;4.50;;;21.30;97.20;;;;;;1707817;29;20449;-76
2022/07/29 05:16:10;;;;;;;5.03;4.63;;;21.30;97.20;;;;;;1707924;29;20234;-75
2022/07/29 05:17:01;;;;;;;5.10;4.80;;;21.30;97.20;;;;;;1707601;29;20202;-75
2022/07/29 05:17:52;;;;;;;4.80;4.50;;;21.30;97.20;;;;;;1707743;29;20209;-75
2022/07/29 05:18:43;;;;;;;5.13;4.72;;;21.30;97.20;;;;;;1707890;29;20217;-76
2022/07/29 05:19:35;;;;;;;5.10;4.60;;;21.30;97.20;;;;;;1707872;29;20289;-76
2022/07/29 05:20:28;;;;;;;5.25;4.85;;;21.30;97.20;;;;;;1707839;29;20203;-75
2022/07/29 05:21:19;;;;;;;5.20;4.80;;;21.30;97.20;;;;;;1707859;29;20261;-75
2022/07/29 05:22:10;;;;;;;5.47;4.85;;;21.30;97.20;;;;;;1707792;28;20238;-75
2022/07/29 05:23:03;;;;;;;4.60;4.20;;;21.20;97.20;;;;;;1707917;28;20290;-76
2022/07/29 05:23:53;;;;;;;5.75;4.95;;;21.20;97.20;;;;;;1707756;28;20746;-76
2022/07/29 05:24:45;;;;;;;4.70;4.40;;;21.20;97.20;;;;;;1707896;29;20584;-76
2022/07/29 05:25:36;;;;;;;5.03;4.53;;;21.20;97.20;;;;;;1707826;29;20206;-75
2022/07/29 05:26:28;;;;;;;4.83;4.53;;;21.20;97.20;;;;;;1707770;29;20286;-75
2022/07/29 05:27:19;;;;;;;4.93;4.53;;;21.30;97.20;;;;;;1707583;29;20207;-76
2022/07/29 05:28:10;;;;;;;4.90;4.50;;;21.20;97.20;;;;;;1706608;29;20710;-76
2022/07/29 05:29:01;;;;;;;4.80;4.20;;;21.20;97.20;;;;;;1707612;29;20222;-75
2022/07/29 05:29:53;;;;;;;5.53;4.50;;;21.20;97.20;;;;;;1707249;29;20290;-75
2022/07/29 05:30:44;;;;;;;4.68;4.38;;;21.30;97.20;;;;;;1701279;29;20235;-75
2022/07/29 05:31:37;;;;;;;4.40;4.10;;;21.30;97.20;;;;;;1701261;29;20664;-75
2022/07/29 05:32:28;;;;;;;5.60;4.70;;;21.30;97.20;;;;;;1701157;29;20603;-76
2022/07/29 05:33:19;;;;;;;4.50;4.20;;;21.30;97.20;;;;;;1701212;29;20282;-75
2022/07/29 05:34:10;;;;;;;5.25;4.85;;;21.30;97.20;;;;;;1703645;29;20203;-75
2022/07/29 05:35:02;;;;;;;4.10;3.80;;;21.30;97.20;;;;;;1707649;29;20227;-75
2022/07/29 05:35:53;;;;;;;4.90;4.50;;;21.30;97.20;;;;;;1707717;29;20214;-75
2022/07/29 05:36:45;;;;;;;4.43;4.13;;;21.30;97.20;;;;;;1707545;29;20202;-75
2022/07/29 05:37:35;;;;;;;5.20;4.80;;;21.30;97.20;;;;;;1707759;29;20215;-75
2022/07/29 05:38:27;;;;;;;4.57;4.17;;;21.30;97.20;;;;;;1707681;29;20290;-75
2022/07/29 05:39:18;;;;;;;4.22;3.92;;;21.30;97.20;;;;;;1707686;29;20681;-76
2022/07/29 05:40:11;;;;;;;5.53;4.50;;;21.30;97.20;;;;;;1707805;29;20718;-75
2022/07/29 05:41:02;;;;;;;4.90;4.50;;;21.30;97.20;;;;;;1707716;29;20819;-75
2022/07/29 05:41:54;;;;;;;5.10;4.70;;;21.30;97.20;;;;;;1707616;28;20202;-75
2022/07/29 05:42:44;;;;;;;4.50;4.20;;;21.30;97.20;;;;;;1707762;29;20209;-75
2022/07/29 05:43:36;;;;;;;4.70;4.40;;;21.30;97.20;;;;;;1707645;28;20675;-75
2022/07/29 05:44:27;;;;;;;4.75;4.35;;;21.30;97.20;;;;;;1703230;29;20678;-75
2022/07/29 05:45:19;;;;;;;4.67;4.27;;;21.30;97.20;;;;;;1701064;29;20628;-75
2022/07/29 05:46:10;;;;;;;4.60;4.30;;;21.30;97.20;;;;;;1701122;29;20692;-76
2022/07/29 05:47:03;;;;;;;4.87;4.47;;;21.30;97.20;;;;;;1700875;29;20591;-75
2022/07/29 05:47:53;;;;;;;4.45;4.10;;;21.30;97.20;;;;;;1701104;29;20211;-75
2022/07/29 05:48:45;;;;;;;4.70;4.40;;;21.30;97.20;;;;;;1701103;29;20293;-75
2022/07/29 05:49:36;;;;;;;5.05;4.55;;;21.40;97.20;;;;;;1701115;29;20219;-75
2022/07/29 05:50:28;;;;;;;4.40;4.10;;;21.40;97.20;;;;;;1701159;29;20287;-76
2022/07/29 05:51:19;;;;;;;4.60;4.30;;;21.40;97.20;;;;;;1701050;29;20571;-75
2022/07/29 05:52:10;;;;;;;4.13;3.83;;;21.40;97.20;;;;;;1700966;29;20824;-75
2022/07/29 05:53:01;;;;;;;4.15;3.85;;;21.30;97.20;;;;;;1701256;29;20675;-76
2022/07/29 05:53:53;;;;;;;4.00;3.70;;;21.30;97.20;;;;;;1701131;29;20630;-75
2022/07/29 05:54:44;;;;;;;3.90;3.60;;;21.30;97.20;;;;;;1701067;29;20346;-76
2022/07/29 05:55:35;;;;;;;4.40;4.10;;;21.30;97.20;;;;;;1701054;29;20207;-75
2022/07/29 05:56:26;;;;;;;4.50;4.10;;;21.30;97.20;;;;;;1701085;29;20337;-75
2022/07/29 05:57:18;;;;;;;4.03;3.73;;;21.30;97.20;;;;;;1700806;29;20302;-75
2022/07/29 05:58:09;;;;;;;4.15;3.75;;;21.30;97.20;;;;;;1700912;29;20207;-76
2022/07/29 05:59:01;;;;;;;4.00;3.70;;;21.30;97.20;;;;;;1701136;29;20235;-75
2022/07/29 05:59:52;;;;;;;4.30;4.00;;;21.30;97.20;;;;;;1701012;29;20446;-76
2022/07/29 06:00:43;;;;;;;3.97;3.67;;;21.30;97.20;;;;;;1702026;29;20278;-75
2022/07/29 06:01:39;;;;;;;4.18;3.78;;;21.30;97.20;;;;;;1701067;29;20214;-75
2022/07/29 06:02:32;;;;;;;4.10;3.80;;;21.30;97.20;;;;;;1722844;23;20227;-74
2022/07/29 06:03:22;;;;;;;3.85;3.55;;;21.30;97.20;;;;;;1694463;29;20203;-73
2022/07/29 06:04:14;;;;;;;4.13;3.73;;;21.30;97.20;;;;;;1694486;29;20290;-73
2022/07/29 06:05:07;;;;;;;5.95;3.60;;;21.30;97.20;;;;;;1694442;29;20223;-73
2022/07/29 06:05:59;;;;;;;3.95;3.60;;;21.30;97.20;;;;;;1694177;29;20211;-73
2022/07/29 06:06:49;;;;;;;4.22;3.83;;;21.30;97.20;;;;;;1694021;29;20212;-73
2022/07/29 06:07:41;;;;;;;4.07;3.67;;;21.40;97.20;;;;;;1694419;29;20299;-73
2022/07/29 06:08:33;;;;;;;3.65;3.30;;;21.40;97.20;;;;;;1694373;29;20294;-73
2022/07/29 06:09:25;;;;;;;3.55;3.25;;;21.40;97.20;;;;;;1694395;29;20199;-73
2022/07/29 06:10:16;;;;;;;4.25;3.85;;;21.40;97.20;;;;;;1694520;29;20208;-73
2022/07/29 06:11:08;;;;;;;4.20;3.80;;;21.40;97.20;;;;;;1694416;29;20206;-73
2022/07/29 06:11:59;;;;;;;4.75;3.80;;;21.40;97.20;;;;;;1694310;29;20212;-73
2022/07/29 06:12:51;;;;;;;4.07;3.67;;;21.40;97.20;;;;;;1689368;29;20252;-73
2022/07/29 06:13:42;;;;;;;4.97;3.63;;;21.40;97.20;;;;;;1687772;29;20452;-73
2022/07/29 06:14:33;;;;;;;4.10;3.80;;;21.40;97.20;;;;;;1688319;29;20291;-73
2022/07/29 06:15:24;;;;;;;4.38;3.97;;;21.40;97.20;;;;;;1700761;29;20230;-73
2022/07/29 06:16:16;;;;;;;3.53;3.33;;;21.40;97.20;;;;;;1700854;29;20282;-73
2022/07/29 06:17:07;;;;;;;3.90;3.60;;;21.40;97.20;;;;;;1700657;29;20443;-73
2022/07/29 06:18:00;;;;;;;4.43;3.97;;;21.40;97.20;;;;;;1700795;29;20302;-73
2022/07/29 06:18:51;;;;;;;4.07;3.78;;;21.40;97.20;;;;;;1700874;29;20230;-73
2022/07/29 06:19:43;;;;;;;4.57;4.25;;;21.40;97.20;;;;;;1700789;29;20194;-73
2022/07/29 06:20:34;;;;;;;3.83;3.60;;;21.40;97.20;;;;;;1700837;29;20203;-73
2022/07/29 06:21:26;;;;;;;4.43;3.73;;;21.50;97.20;;;;;;1700827;29;20294;-73
2022/07/29 06:22:17;;;;;;;3.92;3.70;;;21.50;97.20;;;;;;1700883;29;21213;-73
2022/07/29 06:23:09;;;;;;;4.13;3.73;;;21.50;97.20;;;;;;1700601;29;20575;-73
2022/07/29 06:24:00;;;;;;;4.53;4.18;;;21.50;97.20;;;;;;1700801;29;20203;-73
2022/07/29 06:24:52;;;;;;;4.20;3.90;;;21.50;97.20;;;;;;1700875;29;20203;-73
2022/07/29 06:25:43;;;;;;;5.05;4.18;;;21.50;97.20;;;;;;1700801;29;20262;-73
2022/07/29 06:26:34;;;;;;;4.20;3.90;;;21.50;97.20;;;;;;1700532;29;20203;-73
2022/07/29 06:27:25;;;;;;;4.38;3.97;;;21.50;97.20;;;;;;1700745;29;20675;-73
2022/07/29 06:28:17;;;;;;;4.10;3.80;;;21.50;97.20;;;;;;1700749;29;20739;-73
2022/07/29 06:29:10;;;;;;;4.25;3.95;;;21.50;97.20;;;;;;1700901;29;20207;-73
2022/07/29 06:30:02;;;;;;;3.92;3.63;;;21.50;97.20;;;;;;1700875;29;20231;-73
2022/07/29 06:30:53;;;;;;;4.18;3.88;;;21.50;97.20;;;;;;1700811;29;20211;-73
2022/07/29 06:31:45;;;;;;;4.43;4.07;;;21.60;97.20;;;;;;1694764;29;20208;-73
2022/07/29 06:32:36;;;;;;;5.53;4.20;;;21.60;97.20;;;;;;1694109;29;20235;-73
2022/07/29 06:33:29;;;;;;;4.70;4.30;;;21.60;97.20;;;;;;1694267;29;20286;-73
2022/07/29 06:34:20;;;;;;;4.00;3.60;;;21.60;97.20;;;;;;1694261;29;20459;-73
2022/07/29 06:35:11;;;;;;;4.60;4.23;;;21.60;97.20;;;;;;1693816;29;20196;-73
2022/07/29 06:36:04;;;;;;;4.50;4.10;;;21.50;97.20;;;;;;1694146;29;20211;-73
2022/07/29 06:36:56;;;;;;;3.90;3.60;;;21.50;97.20;;;;;;1693976;29;20207;-73
2022/07/29 06:37:46;;;;;;;3.67;3.47;;;21.50;97.20;;;;;;1694131;29;20218;-73
2022/07/29 06:38:38;;;;;;;4.83;4.53;;;21.60;97.20;;;;;;1694205;29;20295;-73
2022/07/29 06:39:29;;;;;;;5.25;4.22;;;21.60;97.20;;;;;;1694252;29;20263;-73
2022/07/29 06:41:30;;;;;;;4.35;3.95;;;21.60;97.20;;;;;;1694314;29;20227;-73
2022/07/29 06:42:21;;;;;;;5.50;4.60;;;21.60;97.20;;;;;;1694174;29;20576;-73
2022/07/29 06:43:13;;;;;;;4.53;4.13;;;21.70;97.20;;;;;;1694296;29;20326;-73
2022/07/29 06:44:04;;;;;;;4.38;3.88;;;21.70;97.20;;;;;;1694274;29;20227;-73
2022/07/29 06:44:56;;;;;;;4.80;4.50;;;21.70;97.20;;;;;;1694177;29;20207;-73
2022/07/29 06:45:46;;;;;;;4.30;3.90;;;21.70;97.20;;;;;;1694224;29;20695;-74
2022/07/29 06:46:38;;;;;;;4.60;4.20;;;21.70;97.20;;;;;;1693897;29;20760;-73
2022/07/29 06:47:29;;;;;;;5.00;4.60;;;21.80;97.20;;;;;;1695294;29;20204;-73
2022/07/29 06:48:21;;;;;;;4.53;4.17;;;21.80;97.20;;;;;;1700602;29;20195;-73
2022/07/29 06:49:14;;;;;;;4.40;4.10;;;21.80;97.20;;;;;;1700700;29;20203;-73
2022/07/29 06:50:05;;;;;;;4.93;4.40;;;21.80;97.20;;;;;;1700644;29;20203;-73
2022/07/29 06:50:57;;;;;;;4.75;4.35;;;21.90;97.20;;;;;;1700734;29;20701;-73
2022/07/29 06:51:48;;;;;;;4.57;4.18;;;21.90;97.20;;;;;;1700728;29;20291;-73
2022/07/29 06:52:40;;;;;;;5.07;4.63;;;21.90;97.20;;;;;;1700617;29;20309;-73
2022/07/29 06:53:32;;;;;;;4.50;4.10;;;21.90;97.20;;;;;;1700688;29;20207;-73
2022/07/29 06:54:24;;;;;;;5.28;4.10;;;21.90;97.20;;;;;;1700551;29;20202;-73
2022/07/29 06:55:14;;;;;;;4.80;4.50;;;21.90;97.20;;;;;;1700616;29;20226;-73
2022/07/29 06:56:08;;;;;;;4.97;4.57;;;22.00;97.20;;;;;;1700821;29;20230;-73
2022/07/29 06:56:59;;;;;;;4.55;4.25;;;22.00;97.20;;;;;;1700359;29;20243;-73
2022/07/29 06:57:51;;;;;;;4.50;4.10;;;21.90;97.20;;;;;;1700653;29;20213;-73
2022/07/29 06:58:42;;;;;;;5.93;5.43;;;21.90;97.20;;;;;;1700647;29;20261;-73
2022/07/29 06:59:34;;;;;;;5.60;5.10;;;21.90;97.20;;;;;;1700718;29;20211;-73
2022/07/29 07:00:24;;;;;;;4.32;4.00;;;22.00;97.20;;;;;;1700795;29;20199;-73
2022/07/29 07:01:16;;;;;;;5.03;4.70;;;21.90;97.20;;;;;;1700796;29;20214;-73
2022/07/29 07:02:07;;;;;;;4.93;4.60;;;22.00;97.20;;;;;;1700700;29;20203;-73
2022/07/29 07:02:59;;;;;;;4.70;4.40;;;22.00;97.20;;;;;;1700516;29;20737;-73
2022/07/29 07:03:49;;;;;;;4.80;4.40;;;22.00;97.20;;;;;;1699467;29;20207;-74
2022/07/29 07:04:42;;;;;;;4.80;4.50;;;22.00;97.20;;;;;;1700257;29;20203;-73
2022/07/29 07:05:33;;;;;;;5.03;4.63;;;22.00;97.20;;;;;;1700676;29;20206;-73
2022/07/29 07:06:25;;;;;;;4.80;4.40;;;22.00;97.20;;;;;;1700272;29;20199;-73
2022/07/29 07:07:16;;;;;;;4.80;4.40;;;22.00;97.20;;;;;;1700431;29;20214;-73
2022/07/29 07:08:07;;;;;;;4.77;4.47;;;22.10;97.20;;;;;;1700696;29;20282;-73
2022/07/29 07:08:58;;;;;;;5.35;4.50;;;22.10;97.20;;;;;;1700691;29;20207;-74
2022/07/29 07:09:50;;;;;;;5.43;5.00;;;22.10;97.20;;;;;;1700725;29;20207;-73
2022/07/29 07:10:41;;;;;;;5.65;4.88;;;22.10;97.20;;;;;;1700653;29;20222;-73
2022/07/29 07:11:33;;;;;;;5.73;5.33;;;22.10;97.20;;;;;;1700684;29;20227;-73
2022/07/29 07:12:23;;;;;;;4.97;4.57;;;22.10;97.20;;;;;;1700622;29;20575;-73
2022/07/29 07:13:16;;;;;;;5.23;4.77;;;22.10;97.20;;;;;;1700671;29;20250;-73
2022/07/29 07:14:08;;;;;;;5.85;5.35;;;22.20;97.20;;;;;;1700765;29;20221;-73
2022/07/29 07:14:59;;;;;;;5.35;4.88;;;22.20;97.20;;;;;;1700574;29;20204;-73
2022/07/29 07:15:51;;;;;;;5.50;4.13;;;22.10;97.20;;;;;;1700587;29;20227;-73
2022/07/29 07:16:42;;;;;;;5.80;5.00;;;22.10;97.20;;;;;;1700446;29;20211;-73
2022/07/29 07:17:34;;;;;;;4.87;4.57;;;22.10;97.20;;;;;;1700702;29;20206;-73
2022/07/29 07:18:26;;;;;;;4.80;4.50;;;22.20;97.20;;;;;;1700570;29;20583;-71
2022/07/29 07:19:18;;;;;;;5.35;4.85;;;22.20;97.20;;;;;;1700635;29;20211;-71
2022/07/29 07:20:12;;;;;;;5.07;4.78;;;22.20;97.20;;;;;;1699502;29;20295;-71
2022/07/29 07:21:04;;;;;;;6.05;5.35;;;22.20;97.20;;;;;;1694073;29;20637;-70
2022/07/29 07:21:56;;;;;;;5.20;4.90;;;22.20;97.20;;;;;;1693991;29;20249;-71
2022/07/29 07:22:47;;;;;;;5.03;4.63;;;22.20;97.20;;;;;;1693982;29;20231;-71
2022/07/29 07:23:39;;;;;;;5.67;5.27;;;22.30;97.20;;;;;;1694063;29;20204;-71
2022/07/29 07:24:30;;;;;;;5.13;4.72;;;22.30;97.20;;;;;;1694081;29;20203;-71
2022/07/29 07:25:21;;;;;;;7.73;4.80;;;22.30;97.20;;;;;;1693980;29;20279;-71
2022/07/29 07:26:12;;;;;;;6.13;5.00;;;22.30;97.20;;;;;;1694034;29;20702;-71
2022/07/29 07:27:04;;;;;;;5.57;5.07;;;22.30;97.20;;;;;;1693793;29;20619;-71
2022/07/29 07:27:55;;;;;;;6.00;5.50;;;22.30;97.20;;;;;;1693944;29;20208;-71
2022/07/29 07:28:47;;;;;;;5.20;4.70;;;22.40;97.20;;;;;;1694048;29;20660;-71
2022/07/29 07:29:40;;;;;;;4.93;4.63;;;22.40;97.20;;;;;;1694013;29;20215;-71
2022/07/29 07:30:32;;;;;;;5.22;4.82;;;22.40;97.20;;;;;;1694018;29;20207;-71
2022/07/29 07:31:23;;;;;;;5.03;4.63;;;22.40;97.20;;;;;;1694001;29;20199;-71
2022/07/29 07:32:16;;;;;;;5.20;4.80;;;22.40;97.20;;;;;;1693914;29;20290;-71
2022/07/29 07:33:06;;;;;;;5.30;4.90;;;22.40;97.20;;;;;;1694079;29;20219;-71
2022/07/29 07:33:58;;;;;;;5.00;4.60;;;22.40;97.20;;;;;;1694067;29;20207;-71
2022/07/29 07:34:49;;;;;;;4.93;4.63;;;22.50;97.20;;;;;;1694094;29;20276;-71
2022/07/29 07:35:44;;;;;;;7.47;5.50;;;22.50;97.20;;;;;;1693936;29;20207;-71
2022/07/29 07:36:34;;;;;;;5.05;4.65;;;22.50;97.20;;;;;;1693625;29;20460;-71
2022/07/29 07:37:27;;;;;;;6.00;5.40;;;22.50;97.20;;;;;;1687532;29;20243;-71
2022/07/29 07:38:17;;;;;;;5.97;4.82;;;22.50;97.20;;;;;;1687511;29;20235;-71
2022/07/29 07:39:09;;;;;;;5.47;5.07;;;22.50;97.20;;;;;;1687532;29;20661;-71
2022/07/29 07:40:00;;;;;;;5.40;4.95;;;22.50;97.20;;;;;;1687443;29;20209;-71
2022/07/29 07:40:52;;;;;;;5.22;4.82;;;22.60;97.20;;;;;;1687551;29;20208;-71
2022/07/29 07:41:43;;;;;;;5.00;4.60;;;22.60;97.20;;;;;;1687461;29;20213;-71
2022/07/29 07:42:34;;;;;;;5.73;5.20;;;22.60;97.20;;;;;;1687483;29;20303;-71
2022/07/29 07:43:25;;;;;;;5.43;4.93;;;22.60;97.20;;;;;;1687551;29;20240;-71
2022/07/29 07:44:17;;;;;;;5.70;5.20;;;22.70;97.20;;;;;;1687589;29;20288;-71
2022/07/29 07:45:09;;;;;;;5.90;5.40;;;22.70;97.20;;;;;;1687471;29;20463;-71
2022/07/29 07:46:01;;;;;;;5.70;5.20;;;22.80;97.20;;;;;;1687514;29;20193;-71
2022/07/29 07:46:52;;;;;;;5.43;5.03;;;22.80;97.20;;;;;;1687391;29;20205;-71
2022/07/29 07:47:44;;;;;;;5.72;5.28;;;22.80;97.20;;;;;;1688160;29;20643;-71
2022/07/29 07:48:35;;;;;;;6.20;5.50;;;22.80;97.20;;;;;;1688780;29;20204;-71
2022/07/29 07:49:27;;;;;;;5.82;5.20;;;22.90;97.20;;;;;;1688715;29;20200;-71
2022/07/29 07:50:18;;;;;;;6.07;5.50;;;22.90;97.20;;;;;;1688817;29;20207;-71
2022/07/29 07:51:11;;;;;;;5.13;4.73;;;22.90;97.20;;;;;;1688731;29;20231;-71
2022/07/29 07:52:02;;;;;;;7.28;5.50;;;22.90;97.20;;;;;;1688731;29;20223;-71
2022/07/29 07:52:57;;;;;;;6.47;5.60;;;22.90;97.20;;;;;;1691401;29;20701;-71
2022/07/29 07:53:50;;;;;;;6.18;5.70;;;22.90;97.20;;;;;;1693368;29;20295;-71
2022/07/29 07:54:42;;;;;;;7.30;5.30;;;22.90;97.20;;;;;;1695130;29;20274;-71
2022/07/29 07:55:33;;;;;;;5.72;5.30;;;23.00;97.20;;;;;;1695191;29;20723;-71
2022/07/29 07:56:25;;;;;;;6.60;5.40;;;23.00;97.20;;;;;;1695147;29;20669;-71
2022/07/29 07:57:16;;;;;;;5.38;4.97;;;23.00;97.20;;;;;;1694918;29;20200;-71
2022/07/29 07:58:08;;;;;;;5.40;5.00;;;23.00;97.20;;;;;;1695072;29;20703;-71
2022/07/29 07:58:59;;;;;;;5.68;5.18;;;23.00;97.20;;;;;;1695184;29;20590;-71
2022/07/29 07:59:51;;;;;;;6.00;5.50;;;23.10;97.20;;;;;;1695243;29;20207;-71
2022/07/29 08:00:41;;;;;;;5.10;4.80;;;23.10;97.20;;;;;;1695137;29;20598;-71
2022/07/29 08:01:33;;;;;;;6.47;5.60;;;23.10;97.20;;;;;;1695244;29;20382;-71
2022/07/29 08:02:24;;;;;;;5.90;5.50;;;23.20;97.20;;;;;;1694904;29;20211;-71
2022/07/29 08:03:16;;;;;;;5.97;5.47;;;23.20;97.20;;;;;;1695216;29;20238;-71
2022/07/29 08:04:07;;;;;;;6.00;5.50;;;23.20;97.20;;;;;;1695149;29;20448;-71
2022/07/29 08:04:59;;;;;;;6.25;5.75;;;23.30;97.20;;;;;;1695131;29;20691;-71
2022/07/29 08:05:50;;;;;;;6.13;5.63;;;23.30;97.20;;;;;;1695189;29;20699;-71
2022/07/29 08:06:43;;;;;;;5.70;5.20;;;23.30;97.20;;;;;;1694887;29;20203;-71
2022/07/29 08:07:34;;;;;;;7.25;5.80;;;23.30;97.20;;;;;;1695158;29;20305;-71
2022/07/29 08:08:26;;;;;;;6.20;5.70;;;23.40;97.20;;;;;;1695068;29;20211;-71
2022/07/29 08:09:17;;;;;;;7.38;5.50;;;23.40;97.20;;;;;;1695159;29;20456;-71
2022/07/29 08:10:09;;;;;;;5.83;5.40;;;23.40;97.20;;;;;;1695779;29;20235;-71
2022/07/29 08:11:01;;;;;;;7.82;6.20;;;23.50;97.20;;;;;;1695038;29;20208;-71
2022/07/29 08:11:53;;;;;;;6.10;5.70;;;23.50;97.20;;;;;;1695085;29;20212;-71
2022/07/29 08:12:44;;;;;;;6.05;5.45;;;23.50;97.20;;;;;;1695013;29;20238;-71
2022/07/29 08:13:37;;;;;;;5.60;5.10;;;23.50;97.20;;;;;;1695154;29;20235;-71
2022/07/29 08:14:28;;;;;;;6.60;6.00;;;23.60;97.20;;;;;;1695101;29;20214;-71
2022/07/29 08:15:19;;;;;;;5.93;5.43;;;23.60;97.20;;;;;;1695132;29;20294;-71
2022/07/29 08:16:14;;;;;;;6.22;5.63;;;23.60;97.20;;;;;;1694990;29;20597;-71
2022/07/29 08:17:06;;;;;;;5.93;5.53;;;23.60;97.20;;;;;;1694857;29;20255;-71
2022/07/29 08:17:57;;;;;;;5.50;5.10;;;23.60;97.20;;;;;;1695019;29;20215;-71
2022/07/29 08:18:49;;;;;;;7.70;5.73;;;23.70;97.20;;;;;;1695071;29;20684;-71
2022/07/29 08:19:40;;;;;;;7.40;5.60;;;23.70;97.20;;;;;;1695051;29;20219;-71
2022/07/29 08:20:33;;;;;;;9.40;5.50;;;23.70;97.20;;;;;;1695039;29;20200;-71
2022/07/29 08:21:24;;;;;;;5.75;5.28;;;23.70;97.20;;;;;;1695060;29;20598;-71
2022/07/29 08:22:17;;;;;;;6.87;5.63;;;23.70;97.20;;;;;;1695037;29;20665;-71
2022/07/29 08:23:08;;;;;;;5.82;5.43;;;23.70;97.20;;;;;;1695088;29;20928;-71
2022/07/29 08:25:06;;;;;;;6.50;6.10;;;23.80;97.20;;;;;;1694889;29;20424;-71
2022/07/29 08:25:57;;;;;;;5.47;4.97;;;23.80;97.20;;;;;;1695999;29;20569;-71
2022/07/29 08:26:49;;;;;;;5.93;5.40;;;23.80;97.20;;;;;;1694773;29;20221;-71
2022/07/29 08:27:39;;;;;;;6.43;5.20;;;23.90;97.20;;;;;;1694930;29;20208;-71
2022/07/29 08:28:31;;;;;;;5.77;5.30;;;23.90;97.20;;;;;;1695089;29;20286;-71
2022/07/29 08:29:22;;;;;;;5.90;5.40;;;23.90;97.20;;;;;;1695035;29;20211;-71
2022/07/29 08:30:14;;;;;;;5.43;5.03;;;24.00;97.20;;;;;;1695018;29;20207;-71
2022/07/29 08:31:05;;;;;;;6.20;5.70;;;24.00;97.20;;;;;;1695004;29;20941;-71
2022/07/29 08:31:57;;;;;;;6.22;5.47;;;24.00;97.20;;;;;;1695043;29;20210;-73
2022/07/29 08:32:48;;;;;;;6.15;5.35;;;24.00;97.20;;;;;;1694883;29;20231;-73
2022/07/29 08:33:40;;;;;;;6.03;5.43;;;24.10;97.20;;;;;;1694943;29;20208;-74
2022/07/29 08:34:31;;;;;;;6.50;6.00;;;24.10;97.20;;;;;;1694990;29;20211;-73
2022/07/29 08:35:24;;;;;;;5.53;5.03;;;24.10;97.20;;;;;;1694962;29;20208;-74
2022/07/29 08:36:16;;;;;;;5.70;5.30;;;24.10;97.20;;;;;;1694910;29;20690;-74
2022/07/29 08:37:07;;;;;;;5.90;5.40;;;24.20;97.20;;;;;;1694669;29;20207;-73
2022/07/29 08:38:00;;;;;;;6.17;5.77;;;24.20;97.20;;;;;;1694845;29;20448;-73
2022/07/29 08:38:51;;;;;;;5.82;4.97;;;24.20;97.20;;;;;;1694932;29;20211;-74
2022/07/29 08:39:43;;;;;;;6.10;5.70;;;24.20;97.20;;;;;;1694877;29;20295;-73
2022/07/29 08:40:33;;;;;;;6.15;5.35;;;24.30;97.20;;;;;;1694877;29;20216;-73
2022/07/29 08:41:25;;;;;;;5.47;5.07;;;24.30;97.20;;;;;;1694929;29;20303;-73
2022/07/29 08:42:17;;;;;;;6.35;5.63;;;24.30;97.20;;;;;;1695892;29;20200;-73
2022/07/29 08:43:08;;;;;;;7.55;5.70;;;24.30;97.20;;;;;;1694962;29;20290;-71
2022/07/29 08:44:00;;;;;;;6.80;6.20;;;24.40;97.20;;;;;;1694905;29;20208;-71
2022/07/29 08:44:51;;;;;;;5.97;5.47;;;24.40;97.20;;;;;;1694926;29;20215;-71
2022/07/29 08:45:45;;;;;;;6.67;6.07;;;24.40;97.20;;;;;;1694895;29;20242;-71
2022/07/29 08:46:38;;;;;;;6.25;5.80;;;24.50;97.20;;;;;;1694533;29;20208;-71
2022/07/29 08:47:30;;;;;;;6.93;5.68;;;24.50;97.20;;;;;;1694983;29;20580;-71
2022/07/29 08:48:22;;;;;;;6.45;5.85;;;24.50;97.20;;;;;;1694795;29;20634;-71
2022/07/29 08:49:14;;;;;;;6.45;5.85;;;24.50;97.20;;;;;;1694921;29;20680;-71
2022/07/29 08:50:06;;;;;;;6.13;5.53;;;24.50;97.20;;;;;;1694855;29;20212;-71
2022/07/29 08:50:59;;;;;;;5.50;5.00;;;24.60;97.20;;;;;;1694948;29;20199;-71
2022/07/29 08:51:50;;;;;;;6.13;5.63;;;24.60;97.20;;;;;;1694909;29;20203;-71
2022/07/29 08:52:43;;;;;;;6.22;5.75;;;24.60;97.20;;;;;;1694737;29;20722;-73
2022/07/29 08:53:37;;;;;;;6.47;5.97;;;24.70;97.20;;;;;;1694889;29;20266;-73
2022/07/29 08:54:30;;;;;;;6.20;5.70;;;24.70;97.20;;;;;;1694851;29;20262;-73
2022/07/29 08:55:20;;;;;;;7.07;6.45;;;24.80;97.20;;;;;;1694856;29;20735;-74
2022/07/29 08:56:13;;;;;;;6.10;5.50;;;24.80;97.20;;;;;;1694805;29;20715;-74
2022/07/29 08:57:06;;;;;;;6.10;5.60;;;24.80;97.20;;;;;;1694602;29;20452;-74
2022/07/29 08:57:57;;;;;;;5.68;5.25;;;24.90;97.20;;;;;;1694710;29;20222;-74
2022/07/29 08:58:50;;;;;;;6.55;5.90;;;24.90;97.20;;;;;;1695145;29;20203;-74
2022/07/29 08:59:42;;;;;;;6.10;5.60;;;25.00;97.20;;;;;;1694737;29;20301;-71
2022/07/29 09:00:36;;;;;;;6.32;5.78;;;25.00;97.20;;;;;;1694882;29;20291;-71
2022/07/29 09:01:29;;;;;;;5.50;4.88;;;25.00;97.20;;;;;;1694882;29;20208;-71
2022/07/29 09:02:22;;;;;;;6.30;5.80;;;25.10;97.20;;;;;;1694717;29;20246;-71
2022/07/29 09:03:16;;;;;;;6.10;5.60;;;25.10;97.20;;;;;;1694901;29;20200;-71
2022/07/29 09:04:12;;;;;;;6.55;6.00;;;25.10;97.20;;;;;;1694885;29;20636;-71
2022/07/29 09:05:05;;;;;;;6.27;5.77;;;25.10;97.20;;;;;;1694859;29;20616;-71
2022/07/29 09:05:57;;;;;;;6.57;6.05;;;25.10;97.20;;;;;;1694790;29;20535;-71
2022/07/29 09:06:51;;;;;;;6.55;5.88;;;25.20;97.20;;;;;;1694497;29;20222;-71
2022/07/29 09:07:44;;;;;;;6.30;5.80;;;25.20;97.20;;;;;;1694771;29;20208;-71
2022/07/29 09:08:36;;;;;;;6.53;6.03;;;25.20;97.20;;;;;;1694694;29;20203;-71
2022/07/29 09:09:28;;;;;;;6.67;6.03;;;25.20;97.20;;;;;;1694828;29;20207;-71
2022/07/29 09:10:19;;;;;;;6.00;5.60;;;25.20;97.20;;;;;;1694789;29;20467;-71
2022/07/29 09:11:11;;;;;;;5.80;5.30;;;25.30;97.20;;;;;;1694788;29;20471;-71
2022/07/29 09:12:03;;;;;;;6.18;5.68;;;25.30;97.20;;;;;;1694675;29;20214;-71
2022/07/29 09:12:56;;;;;;;6.20;5.70;;;25.30;97.20;;;;;;1694699;29;20220;-71
2022/07/29 09:13:47;;;;;;;6.35;5.75;;;25.30;97.20;;;;;;1694734;29;20463;-71
2022/07/29 09:14:39;;;;;;;5.85;5.30;;;25.40;97.20;;;;;;1694741;29;20215;-71
2022/07/29 09:15:30;;;;;;;5.82;5.43;;;25.40;97.20;;;;;;1695785;29;20200;-71
2022/07/29 09:16:22;;;;;;;7.07;6.50;;;25.50;97.20;;;;;;1694539;29;20206;-71
2022/07/29 09:17:16;;;;;;;6.93;6.32;;;25.50;97.20;;;;;;1694456;29;20456;-71
2022/07/29 09:18:08;;;;;;;6.35;5.75;;;25.60;97.20;;;;;;1694623;29;20204;-71
2022/07/29 09:18:59;;;;;;;6.23;5.63;;;25.60;97.20;;;;;;1694704;29;20222;-71
2022/07/29 09:19:52;;;;;;;6.43;5.93;;;25.60;97.20;;;;;;1694032;29;20534;-71
2022/07/29 09:22:05;;;;;;;6.93;6.30;;;25.60;97.20;;;;;;1694852;29;20579;-71
2022/07/29 09:22:56;;;;;;;6.45;5.60;;;25.60;97.20;;;;;;1694659;29;21012;-71
2022/07/29 09:24:03;;;;;;;5.97;5.50;;;25.60;97.20;;;;;;1694729;29;20830;-71
2022/07/29 09:24:55;;;;;;;6.88;6.10;;;25.70;97.20;;;;;;1694663;29;20947;-71
2022/07/29 09:25:46;;;;;;;6.22;5.43;;;25.70;97.20;;;;;;1694709;29;20605;-71
2022/07/29 09:26:41;;;;;;;6.90;6.30;;;25.80;97.20;;;;;;1694362;29;20610;-71
2022/07/29 09:27:33;;;;;;;6.00;5.60;;;25.80;97.20;;;;;;1694853;29;20975;-71
2022/07/29 09:28:25;;;;;;;6.68;6.15;;;25.80;97.20;;;;;;1694638;29;20810;-71
2022/07/29 09:29:17;;;;;;;7.22;6.45;;;25.80;97.20;;;;;;1694664;29;20208;-71
2022/07/29 09:30:11;;;;;;;6.40;5.90;;;25.90;97.20;;;;;;1694789;29;20599;-71
2022/07/29 09:31:02;;;;;;;6.25;5.65;;;25.90;97.20;;;;;;1694654;29;20205;-71
2022/07/29 09:31:55;;;;;;;6.93;6.33;;;25.90;97.20;;;;;;1695598;29;20223;-71
2022/07/29 09:32:56;;;;;;;6.68;6.18;;;25.90;97.20;;;;;;1694562;29;20514;-71
2022/07/29 09:33:48;;;;;;;7.07;6.15;;;26.00;97.20;;;;;;1694561;29;20304;-71